Time;durP1;ratioP1;P1;durP2;ratioP2;P2;SDS_P1;SDS_P2;PMS_P1;PMS_P2;Temp;Humidity;BMP_temperature;BMP_pressure;BME280_temperature;BME280_humidity;BME280_pressure;Samples;Min_cycle;Max_cycle;Signal;HPM_P1;HPM_P2
2024/04/12 00:00:21;;;;;;;14.10;8.77;;;;;;;;;;2187688;27;20046;-73
2024/04/12 00:01:25;;;;;;;12.60;9.07;;;;;;;;;;2185982;27;20009;-74
2024/04/12 00:02:27;;;;;;;15.93;8.55;;;;;;;;;;2184691;26;20089;-73
2024/04/12 00:03:29;;;;;;;16.48;10.20;;;;;;;;;;2185653;27;20010;-73
2024/04/12 00:04:35;;;;;;;13.80;8.70;;;;;;;;;;2185549;27;20009;-73
2024/04/12 00:05:47;;;;;;;13.60;8.98;;;;;;;;;;2184173;26;20013;-73
2024/04/12 00:06:49;;;;;;;15.43;8.60;;;;;;;;;;2185138;27;20018;-74
2024/04/12 00:08:01;;;;;;;17.67;9.10;;;;;;;;;;2184490;27;20010;-74
2024/04/12 00:09:09;;;;;;;16.45;8.82;;;;;;;;;;2184615;27;20335;-73
2024/04/12 00:10:13;;;;;;;15.35;8.55;;;;;;;;;;2187896;26;20421;-74
2024/04/12 00:11:16;;;;;;;13.60;8.32;;;;;;;;;;2184929;26;20010;-74
2024/04/12 00:12:17;;;;;;;21.15;9.27;;;;;;;;;;2186035;27;20017;-74
2024/04/12 00:13:21;;;;;;;15.10;8.05;;;;;;;;;;2183366;26;20017;-76
2024/04/12 00:14:25;;;;;;;14.88;8.98;;;;;;;;;;2185465;26;20010;-75
2024/04/12 00:15:27;;;;;;;15.80;9.80;;;;;;;;;;2184191;27;20013;-73
2024/04/12 00:16:29;;;;;;;15.00;9.77;;;;;;;;;;2189408;27;20025;-73
2024/04/12 00:17:33;;;;;;;15.63;9.25;;;;;;;;;;2183977;27;21173;-73
2024/04/12 00:18:36;;;;;;;14.60;8.85;;;;;;;;;;2186996;27;20017;-73
2024/04/12 00:19:37;;;;;;;13.82;9.32;;;;;;;;;;2184538;26;20010;-73
2024/04/12 00:20:37;;;;;;;;;;;;;;;;;;2185326;27;20329;-73
2024/04/12 00:21:41;;;;;;;11.35;8.77;;;;;;;;;;2185678;27;20018;-73
2024/04/12 00:22:43;;;;;;;13.65;9.40;;;;;;;;;;2184510;27;20003;-73
2024/04/12 00:23:44;;;;;;;17.38;9.60;;;;;;;;;;2187973;26;20009;-73
2024/04/12 00:24:45;;;;;;;13.57;8.95;;;;;;;;;;2186454;26;20012;-73
2024/04/12 00:25:50;;;;;;;14.85;9.38;;;;;;;;;;2187351;26;20050;-73
2024/04/12 00:26:53;;;;;;;16.80;9.10;;;;;;;;;;2185482;26;20014;-73
2024/04/12 00:27:55;;;;;;;16.33;9.73;;;;;;;;;;2189322;27;20017;-73
2024/04/12 00:28:58;;;;;;;14.45;10.18;;;;;;;;;;2186654;27;20009;-73
2024/04/12 00:30:07;;;;;;;13.65;9.65;;;;;;;;;;2199464;26;20005;-73
2024/04/12 00:31:13;;;;;;;20.83;10.20;;;;;;;;;;2199620;26;20001;-73
2024/04/12 00:32:16;;;;;;;11.35;9.48;;;;;;;;;;2198482;26;20009;-73
2024/04/12 00:33:19;;;;;;;18.45;9.57;;;;;;;;;;2201779;26;20489;-73
2024/04/12 00:34:26;;;;;;;17.27;10.55;;;;;;;;;;2200236;26;20125;-73
2024/04/12 00:35:34;;;;;;;13.70;9.73;;;;;;;;;;2202018;26;20071;-73
2024/04/12 00:36:35;;;;;;;16.20;10.52;;;;;;;;;;2199936;26;20009;-73
2024/04/12 00:37:39;;;;;;;15.75;9.88;;;;;;;;;;2201301;26;20712;-73
2024/04/12 00:38:46;;;;;;;15.38;10.00;;;;;;;;;;2199724;26;20381;-73
2024/04/12 00:39:48;;;;;;;16.33;9.85;;;;;;;;;;2200975;26;20465;-73
2024/04/12 00:40:52;;;;;;;16.92;9.35;;;;;;;;;;2200459;26;20009;-74
2024/04/12 00:41:53;;;;;;;15.75;9.10;;;;;;;;;;2194309;26;20017;-73
2024/04/12 00:42:57;;;;;;;16.40;9.88;;;;;;;;;;2198968;26;20071;-73
2024/04/12 00:44:03;;;;;;;14.98;9.75;;;;;;;;;;2201602;26;20005;-73
2024/04/12 00:45:11;;;;;;;14.40;8.88;;;;;;;;;;2201943;26;20021;-73
2024/04/12 00:46:19;;;;;;;17.38;9.57;;;;;;;;;;2199548;26;20456;-74
2024/04/12 00:47:20;;;;;;;15.65;10.13;;;;;;;;;;2201046;26;20499;-73
2024/04/12 00:48:21;;;;;;;15.55;10.77;;;;;;;;;;2199320;26;20132;-73
2024/04/12 00:49:30;;;;;;;;;;;;;;;;;;2201562;26;20005;-73
2024/04/12 00:50:36;;;;;;;17.10;10.15;;;;;;;;;;2197528;26;19934;-71
2024/04/12 00:51:37;;;;;;;17.40;10.30;;;;;;;;;;2201565;26;20080;-73
2024/04/12 00:52:43;;;;;;;;;;;;;;;;;;2201768;26;20009;-74
2024/04/12 00:53:46;;;;;;;15.45;9.55;;;;;;;;;;2200535;26;20738;-74
2024/04/12 00:54:53;;;;;;;15.98;9.88;;;;;;;;;;2200488;26;20005;-71
2024/04/12 00:56:00;;;;;;;14.05;10.15;;;;;;;;;;2199866;26;20001;-71
2024/04/12 00:57:02;;;;;;;13.98;9.32;;;;;;;;;;2198238;26;20013;-71
2024/04/12 00:58:04;;;;;;;20.95;9.77;;;;;;;;;;2199104;26;20170;-71
2024/04/12 00:59:08;;;;;;;17.05;9.90;;;;;;;;;;2196796;26;20005;-71
2024/04/12 01:00:19;;;;;;;15.95;10.18;;;;;;;;;;2201625;26;19997;-73
2024/04/12 01:01:22;;;;;;;16.00;9.23;;;;;;;;;;2197011;26;20026;-71
2024/04/12 01:02:25;;;;;;;18.85;10.20;;;;;;;;;;2199438;26;20015;-71
2024/04/12 01:03:29;;;;;;;15.15;10.30;;;;;;;;;;2197912;26;19998;-73
2024/04/12 01:04:30;;;;;;;18.45;9.90;;;;;;;;;;2202305;26;20512;-72
2024/04/12 01:05:32;;;;;;;16.67;10.50;;;;;;;;;;2192852;26;20017;-72
2024/04/12 01:06:37;;;;;;;16.13;9.45;;;;;;;;;;2185733;26;20076;-72
2024/04/12 01:07:38;;;;;;;18.75;10.05;;;;;;;;;;2185713;27;20017;-72
2024/04/12 01:08:39;;;;;;;16.65;10.48;;;;;;;;;;2185527;26;20006;-72
2024/04/12 01:09:43;;;;;;;;;;;;;;;;;;2185719;26;20005;-72
2024/04/12 01:10:47;;;;;;;18.50;10.65;;;;;;;;;;2185866;26;19934;-72
2024/04/12 01:11:49;;;;;;;17.02;10.00;;;;;;;;;;2186682;26;20013;-72
2024/04/12 01:12:55;;;;;;;16.48;9.98;;;;;;;;;;2186651;27;20009;-72
2024/04/12 01:13:56;;;;;;;20.02;10.60;;;;;;;;;;2186062;27;20009;-72
2024/04/12 01:15:00;;;;;;;18.67;10.10;;;;;;;;;;2184983;26;20542;-72
2024/04/12 01:16:05;;;;;;;16.88;9.85;;;;;;;;;;2182583;26;20384;-71
2024/04/12 01:17:10;;;;;;;18.33;9.90;;;;;;;;;;2185626;26;20349;-71
2024/04/12 01:18:14;;;;;;;17.30;10.60;;;;;;;;;;2186179;27;20104;-72
2024/04/12 01:19:18;;;;;;;18.38;9.82;;;;;;;;;;2185049;27;20009;-72
2024/04/12 01:20:21;;;;;;;15.52;9.43;;;;;;;;;;2191906;26;20027;-72
2024/04/12 01:21:24;;;;;;;16.67;9.93;;;;;;;;;;2201828;26;20037;-72
2024/04/12 01:22:27;;;;;;;19.15;10.32;;;;;;;;;;2201166;26;20005;-72
2024/04/12 01:23:28;;;;;;;15.05;9.77;;;;;;;;;;2191888;26;20083;-72
2024/04/12 01:24:33;;;;;;;16.95;10.55;;;;;;;;;;2184649;27;20110;-72
2024/04/12 01:25:39;;;;;;;13.35;9.98;;;;;;;;;;2185336;27;20017;-72
2024/04/12 01:26:40;;;;;;;15.40;9.88;;;;;;;;;;2187784;26;20085;-72
2024/04/12 01:27:44;;;;;;;12.30;9.25;;;;;;;;;;2185028;27;20002;-71
2024/04/12 01:28:48;;;;;;;13.90;9.77;;;;;;;;;;2185565;27;20117;-72
2024/04/12 01:29:51;;;;;;;15.70;10.75;;;;;;;;;;2185771;26;20373;-72
2024/04/12 01:30:59;;;;;;;16.02;10.35;;;;;;;;;;2185795;26;20060;-73
2024/04/12 01:32:04;;;;;;;19.70;11.07;;;;;;;;;;2184945;26;20005;-72
2024/04/12 01:33:06;;;;;;;19.42;10.48;;;;;;;;;;2186399;27;20006;-73
2024/04/12 01:34:13;;;;;;;12.52;9.27;;;;;;;;;;2183820;27;19999;-72
2024/04/12 01:35:15;;;;;;;14.75;9.95;;;;;;;;;;2182682;26;20002;-72
2024/04/12 01:36:17;;;;;;;16.13;10.07;;;;;;;;;;2183724;27;20050;-72
2024/04/12 01:37:20;;;;;;;15.70;10.48;;;;;;;;;;2184690;27;20040;-72
2024/04/12 01:38:24;;;;;;;14.05;9.57;;;;;;;;;;2187461;26;20024;-72
2024/04/12 01:39:28;;;;;;;16.08;9.55;;;;;;;;;;2189615;27;20016;-72
2024/04/12 01:40:35;;;;;;;17.42;9.63;;;;;;;;;;2186005;26;20018;-72
2024/04/12 01:41:44;;;;;;;17.63;9.95;;;;;;;;;;2184241;26;20021;-71
2024/04/12 01:42:45;;;;;;;14.23;9.85;;;;;;;;;;2185375;27;20002;-72
2024/04/12 01:43:52;;;;;;;;;;;;;;;;;;2184778;27;20002;-73
2024/04/12 01:46:11;;;;;;;17.10;10.38;;;;;;;;;;2182838;27;20038;-72
2024/04/12 01:47:14;;;;;;;14.95;9.98;;;;;;;;;;2186777;26;20021;-73
2024/04/12 01:48:16;;;;;;;20.05;10.85;;;;;;;;;;2189012;26;20117;-73
2024/04/12 01:49:22;;;;;;;18.23;10.70;;;;;;;;;;2185056;27;20017;-73
2024/04/12 01:50:26;;;;;;;15.63;10.50;;;;;;;;;;2188951;26;20701;-74
2024/04/12 01:51:34;;;;;;;17.00;11.05;;;;;;;;;;2187803;26;20017;-74
2024/04/12 01:52:50;;;;;;;18.40;11.60;;;;;;;;;;2184249;27;20010;-73
2024/04/12 01:53:54;;;;;;;14.68;10.93;;;;;;;;;;2185689;26;20014;-73
2024/04/12 01:55:10;;;;;;;18.23;12.23;;;;;;;;;;2185219;27;20005;-73
2024/04/12 01:56:14;;;;;;;14.63;10.55;;;;;;;;;;2185440;26;20422;-73
2024/04/12 01:57:28;;;;;;;17.52;10.82;;;;;;;;;;2188541;27;20024;-73
2024/04/12 01:58:29;;;;;;;14.95;10.63;;;;;;;;;;2183453;27;20021;-74
2024/04/12 01:59:33;;;;;;;12.50;9.93;;;;;;;;;;2187753;26;20013;-73
2024/04/12 02:00:35;;;;;;;12.18;10.10;;;;;;;;;;2187708;27;20734;-73
2024/04/12 02:01:37;;;;;;;16.15;9.90;;;;;;;;;;2185352;26;20002;-73
2024/04/12 02:02:38;;;;;;;15.60;10.05;;;;;;;;;;2182932;26;20009;-74
2024/04/12 02:03:42;;;;;;;;;;;;;;;;;;2185374;26;20012;-73
2024/04/12 02:04:43;;;;;;;14.85;10.02;;;;;;;;;;2182685;26;19977;-74
2024/04/12 02:05:45;;;;;;;15.82;10.00;;;;;;;;;;2187031;26;20024;-73
2024/04/12 02:06:48;;;;;;;15.32;10.00;;;;;;;;;;2188001;26;20781;-72
2024/04/12 02:07:51;;;;;;;13.13;10.10;;;;;;;;;;2185383;26;20025;-73
2024/04/12 02:08:52;;;;;;;16.10;10.20;;;;;;;;;;2183786;26;20013;-74
2024/04/12 02:10:07;;;;;;;13.40;9.38;;;;;;;;;;2187452;26;20002;-73
2024/04/12 02:11:10;;;;;;;14.45;9.52;;;;;;;;;;2184619;26;20091;-73
2024/04/12 02:12:13;;;;;;;15.35;10.10;;;;;;;;;;2187891;27;20017;-74
2024/04/12 02:13:17;;;;;;;15.32;9.50;;;;;;;;;;2181500;27;20022;-73
2024/04/12 02:14:18;;;;;;;15.43;9.20;;;;;;;;;;2184776;26;20022;-74
2024/04/12 02:15:19;;;;;;;;;;;;;;;;;;2182893;26;20356;-73
2024/04/12 02:16:23;;;;;;;16.02;9.15;;;;;;;;;;2185833;26;19934;-73
2024/04/12 02:17:26;;;;;;;15.82;9.82;;;;;;;;;;2183532;26;20014;-74
2024/04/12 02:18:32;;;;;;;14.82;9.50;;;;;;;;;;2185358;27;20466;-73
2024/04/12 02:19:36;;;;;;;14.95;8.65;;;;;;;;;;2184135;27;20107;-73
2024/04/12 02:20:37;;;;;;;15.85;9.38;;;;;;;;;;2185076;26;20327;-73
2024/04/12 02:21:40;;;;;;;13.98;8.80;;;;;;;;;;2183166;27;20013;-73
2024/04/12 02:22:41;;;;;;;11.38;9.00;;;;;;;;;;2183929;26;20696;-73
2024/04/12 02:23:44;;;;;;;13.45;8.73;;;;;;;;;;2184048;26;20086;-73
2024/04/12 02:24:48;;;;;;;10.82;8.38;;;;;;;;;;2183557;27;19998;-75
2024/04/12 02:25:49;;;;;;;12.70;8.52;;;;;;;;;;2185966;27;20013;-73
2024/04/12 02:26:50;;;;;;;;;;;;;;;;;;2182963;26;20017;-73
2024/04/12 02:27:55;;;;;;;13.00;8.32;;;;;;;;;;2185855;26;20025;-73
2024/04/12 02:29:04;;;;;;;11.82;7.57;;;;;;;;;;2186733;26;20021;-73
2024/04/12 02:30:06;;;;;;;10.68;8.18;;;;;;;;;;2188561;27;20023;-73
2024/04/12 02:31:10;;;;;;;13.15;8.55;;;;;;;;;;2183310;27;20013;-72
2024/04/12 02:32:14;;;;;;;12.98;8.57;;;;;;;;;;2187771;26;20010;-73
2024/04/12 02:33:16;;;;;;;11.75;7.80;;;;;;;;;;2184053;27;19998;-73
2024/04/12 02:34:17;;;;;;;12.60;8.45;;;;;;;;;;2188887;27;20005;-73
2024/04/12 02:35:21;;;;;;;10.82;8.85;;;;;;;;;;2185062;26;20041;-73
2024/04/12 02:36:30;;;;;;;11.07;8.18;;;;;;;;;;2189181;26;20145;-73
2024/04/12 02:37:34;;;;;;;10.20;7.50;;;;;;;;;;2188226;27;20013;-74
2024/04/12 02:38:36;;;;;;;14.50;8.85;;;;;;;;;;2187085;26;20689;-73
2024/04/12 02:39:40;;;;;;;14.73;8.40;;;;;;;;;;2184721;26;20002;-73
2024/04/12 02:40:44;;;;;;;14.80;8.35;;;;;;;;;;2186095;26;20013;-73
2024/04/12 02:41:45;;;;;;;14.10;8.00;;;;;;;;;;2185543;26;20005;-73
2024/04/12 02:42:46;;;;;;;;;;;;;;;;;;2185697;27;20021;-73
2024/04/12 02:43:51;;;;;;;16.65;8.30;;;;;;;;;;2188153;26;19970;-73
2024/04/12 02:44:55;;;;;;;12.60;8.32;;;;;;;;;;2189800;26;20022;-73
2024/04/12 02:45:58;;;;;;;15.63;7.90;;;;;;;;;;2189199;26;20020;-73
2024/04/12 02:46:59;;;;;;;12.00;8.45;;;;;;;;;;2188120;26;20013;-73
2024/04/12 02:48:03;;;;;;;;;;;;;;;;;;2186767;27;20022;-73
2024/04/12 02:49:06;;;;;;;11.35;8.27;;;;;;;;;;2189414;26;19946;-73
2024/04/12 02:50:10;;;;;;;11.02;8.20;;;;;;;;;;2186837;26;20052;-74
2024/04/12 02:51:17;;;;;;;10.50;7.60;;;;;;;;;;2190184;26;20366;-73
2024/04/12 02:52:18;;;;;;;12.35;8.18;;;;;;;;;;2185941;27;20001;-73
2024/04/12 02:53:19;;;;;;;;;;;;;;;;;;2186777;26;20005;-74
2024/04/12 02:54:20;;;;;;;11.88;7.80;;;;;;;;;;2187212;26;19926;-74
2024/04/12 02:55:30;;;;;;;15.18;8.35;;;;;;;;;;2187402;26;20013;-73
2024/04/12 02:56:33;;;;;;;10.80;8.15;;;;;;;;;;2186008;26;20001;-73
2024/04/12 02:57:34;;;;;;;16.17;8.75;;;;;;;;;;2185583;27;20010;-73
2024/04/12 02:58:41;;;;;;;;;;;;;;;;;;2187715;26;20021;-73
2024/04/12 02:59:42;;;;;;;13.75;7.68;;;;;;;;;;2189969;26;19955;-74
2024/04/12 03:00:46;;;;;;;11.57;8.18;;;;;;;;;;2187151;27;20010;-73
2024/04/12 03:01:47;;;;;;;12.35;8.60;;;;;;;;;;2188034;26;21156;-73
2024/04/12 03:02:50;;;;;;;11.45;8.30;;;;;;;;;;2186284;26;20154;-73
2024/04/12 03:03:55;;;;;;;15.60;8.77;;;;;;;;;;2184610;27;20022;-73
2024/04/12 03:05:00;;;;;;;10.55;7.63;;;;;;;;;;2187331;27;20050;-73
2024/04/12 03:06:01;;;;;;;10.55;7.95;;;;;;;;;;2192885;27;20724;-74
2024/04/12 03:07:09;;;;;;;11.65;8.25;;;;;;;;;;2193023;26;20009;-73
2024/04/12 03:08:17;;;;;;;13.13;7.80;;;;;;;;;;2192078;26;20013;-74
2024/04/12 03:09:18;;;;;;;10.85;7.95;;;;;;;;;;2187515;26;20372;-71
2024/04/12 03:10:19;;;;;;;;;;;;;;;;;;2187809;26;20029;-74
2024/04/12 03:11:25;;;;;;;13.50;8.15;;;;;;;;;;2188086;27;20871;-74
2024/04/12 03:12:26;;;;;;;11.85;8.10;;;;;;;;;;2185835;27;20002;-74
2024/04/12 03:13:29;;;;;;;12.13;8.25;;;;;;;;;;2185880;26;20002;-74
2024/04/12 03:14:30;;;;;;;13.80;8.82;;;;;;;;;;2186679;26;20006;-74
2024/04/12 03:15:36;;;;;;;14.52;8.18;;;;;;;;;;2187156;26;20002;-74
2024/04/12 03:16:42;;;;;;;12.48;8.55;;;;;;;;;;2189236;27;20092;-74
2024/04/12 03:17:43;;;;;;;11.68;7.82;;;;;;;;;;2185811;26;20074;-74
2024/04/12 03:18:48;;;;;;;10.30;7.30;;;;;;;;;;2189518;26;20022;-74
2024/04/12 03:19:49;;;;;;;13.57;8.07;;;;;;;;;;2186611;26;20017;-74
2024/04/12 03:20:51;;;;;;;;;;;;;;;;;;2188030;27;20006;-72
2024/04/12 03:21:53;;;;;;;13.95;8.57;;;;;;;;;;2186013;26;19934;-72
2024/04/12 03:22:57;;;;;;;15.23;8.43;;;;;;;;;;2188245;26;20354;-72
2024/04/12 03:23:58;;;;;;;14.52;8.02;;;;;;;;;;2184263;27;20008;-72
2024/04/12 03:24:59;;;;;;;17.77;8.77;;;;;;;;;;2183415;26;20362;-74
2024/04/12 03:26:03;;;;;;;12.45;8.63;;;;;;;;;;2189786;26;20017;-71
2024/04/12 03:27:05;;;;;;;12.73;8.82;;;;;;;;;;2185907;27;20010;-72
2024/04/12 03:28:08;;;;;;;17.92;8.20;;;;;;;;;;2187696;27;20014;-72
2024/04/12 03:29:11;;;;;;;14.23;8.20;;;;;;;;;;2185516;26;20326;-72
2024/04/12 03:30:18;;;;;;;19.23;7.97;;;;;;;;;;2183516;26;20454;-72
2024/04/12 03:31:19;;;;;;;12.57;7.90;;;;;;;;;;2185118;27;20663;-72
2024/04/12 03:32:29;;;;;;;;;;;;;;;;;;2189248;26;20010;-72
2024/04/12 03:33:30;;;;;;;12.52;7.60;;;;;;;;;;2183329;27;19927;-73
2024/04/12 03:34:35;;;;;;;;;;;;;;;;;;2186819;26;20366;-72
2024/04/12 03:35:37;;;;;;;12.45;7.35;;;;;;;;;;2183242;27;19938;-71
2024/04/12 03:36:53;;;;;;;12.18;7.85;;;;;;;;;;2184573;26;20002;-72
2024/04/12 03:40:30;;;;;;;12.40;7.45;;;;;;;;;;2182796;26;20042;-71
2024/04/12 03:41:32;;;;;;;11.15;7.28;;;;;;;;;;2185169;26;20001;-72
2024/04/12 03:42:33;;;;;;;12.10;7.40;;;;;;;;;;2184318;27;20079;-71
2024/04/12 03:43:34;;;;;;;;;;;;;;;;;;2186983;27;20017;-72
2024/04/12 03:44:38;;;;;;;;;;;;;;;;;;2186471;27;19926;-72
2024/04/12 03:45:39;;;;;;;10.98;7.15;;;;;;;;;;2186065;27;19934;-72
2024/04/12 03:46:41;;;;;;;8.80;6.53;;;;;;;;;;2186759;26;19998;-72
2024/04/12 03:47:44;;;;;;;11.65;7.18;;;;;;;;;;2185170;26;20033;-72
2024/04/12 03:48:48;;;;;;;13.57;7.80;;;;;;;;;;2185607;27;20076;-72
2024/04/12 03:49:52;;;;;;;11.95;7.53;;;;;;;;;;2186798;26;20073;-72
2024/04/12 03:50:59;;;;;;;11.82;7.70;;;;;;;;;;2186791;26;20410;-72
2024/04/12 03:52:04;;;;;;;14.13;7.15;;;;;;;;;;2191369;26;20021;-72
2024/04/12 03:53:14;;;;;;;9.20;6.95;;;;;;;;;;2185311;26;20454;-72
2024/04/12 03:54:18;;;;;;;12.95;7.68;;;;;;;;;;2185147;27;20017;-73
2024/04/12 03:55:19;;;;;;;13.45;7.47;;;;;;;;;;2185033;26;20033;-72
2024/04/12 03:56:28;;;;;;;;;;;;;;;;;;2185475;26;20092;-72
2024/04/12 03:57:29;;;;;;;12.82;6.88;;;;;;;;;;2183765;27;19997;-72
2024/04/12 03:58:30;;;;;;;;;;;;;;;;;;2186671;26;20002;-72
2024/04/12 03:59:34;;;;;;;14.52;6.97;;;;;;;;;;2186545;26;19938;-72
2024/04/12 04:00:38;;;;;;;13.15;7.45;;;;;;;;;;2188949;27;20003;-72
2024/04/12 04:01:44;;;;;;;9.30;6.75;;;;;;;;;;2188688;26;20002;-72
2024/04/12 04:02:51;;;;;;;13.23;7.20;;;;;;;;;;2185735;26;20770;-72
2024/04/12 04:03:57;;;;;;;14.73;7.65;;;;;;;;;;2187457;27;20001;-72
2024/04/12 04:05:13;;;;;;;13.35;7.63;;;;;;;;;;2187194;26;20033;-72
2024/04/12 04:06:21;;;;;;;15.90;7.32;;;;;;;;;;2189575;27;20020;-71
2024/04/12 04:07:22;;;;;;;10.43;7.00;;;;;;;;;;2184626;27;20379;-72
2024/04/12 04:08:23;;;;;;;9.98;7.45;;;;;;;;;;2187829;26;20122;-73
2024/04/12 04:09:25;;;;;;;;;;;;;;;;;;2186114;26;20001;-73
2024/04/12 04:10:26;;;;;;;;;;;;;;;;;;2188270;26;19934;-72
2024/04/12 04:11:30;;;;;;;11.25;6.85;;;;;;;;;;2184070;26;20021;-73
2024/04/12 04:12:32;;;;;;;15.13;7.03;;;;;;;;;;2188488;26;20076;-73
2024/04/12 04:13:34;;;;;;;12.07;7.35;;;;;;;;;;2182982;26;20053;-72
2024/04/12 04:14:36;;;;;;;14.50;7.22;;;;;;;;;;2182916;26;20026;-72
2024/04/12 04:15:50;;;;;;;9.68;7.07;;;;;;;;;;2188255;27;20010;-73
2024/04/12 04:16:52;;;;;;;13.32;7.03;;;;;;;;;;2187432;26;20014;-73
2024/04/12 04:17:56;;;;;;;9.95;7.00;;;;;;;;;;2186516;26;20010;-73
2024/04/12 04:19:01;;;;;;;10.02;6.75;;;;;;;;;;2187342;27;20011;-73
2024/04/12 04:20:05;;;;;;;11.43;6.72;;;;;;;;;;2185900;26;20474;-73
2024/04/12 04:21:07;;;;;;;12.80;7.32;;;;;;;;;;2187324;27;20016;-73
2024/04/12 04:22:21;;;;;;;11.57;7.38;;;;;;;;;;2189570;26;20002;-73
2024/04/12 04:23:23;;;;;;;17.60;7.25;;;;;;;;;;2183367;26;20048;-71
2024/04/12 04:24:24;;;;;;;13.10;7.85;;;;;;;;;;2186317;26;20005;-72
2024/04/12 04:25:25;;;;;;;8.98;7.20;;;;;;;;;;2187820;27;20319;-73
2024/04/12 04:26:29;;;;;;;13.40;7.35;;;;;;;;;;2184752;26;20025;-73
2024/04/12 04:27:30;;;;;;;14.38;7.97;;;;;;;;;;2189121;26;20418;-73
2024/04/12 04:28:31;;;;;;;19.80;7.53;;;;;;;;;;2189018;27;20012;-73
2024/04/12 04:29:37;;;;;;;15.43;8.10;;;;;;;;;;2185504;26;20006;-73
2024/04/12 04:30:38;;;;;;;16.15;7.63;;;;;;;;;;2184049;27;20512;-73
2024/04/12 04:31:47;;;;;;;15.40;7.70;;;;;;;;;;2189434;26;20726;-73
2024/04/12 04:32:48;;;;;;;19.80;6.82;;;;;;;;;;2182413;26;20014;-73
2024/04/12 04:33:57;;;;;;;9.48;6.85;;;;;;;;;;2181394;27;20010;-73
2024/04/12 04:35:05;;;;;;;12.15;7.05;;;;;;;;;;2186312;26;20673;-73
2024/04/12 04:36:09;;;;;;;11.68;7.38;;;;;;;;;;2186873;27;20020;-73
2024/04/12 04:37:10;;;;;;;14.73;6.82;;;;;;;;;;2186206;26;20021;-73
2024/04/12 04:38:14;;;;;;;;;;;;;;;;;;2185784;26;20025;-73
2024/04/12 04:39:15;;;;;;;17.48;7.57;;;;;;;;;;2188860;27;20385;-73
2024/04/12 04:40:17;;;;;;;21.20;7.70;;;;;;;;;;2183741;26;20125;-73
2024/04/12 04:41:19;;;;;;;24.15;8.55;;;;;;;;;;2185592;26;20703;-73
2024/04/12 04:42:23;;;;;;;22.20;9.02;;;;;;;;;;2187912;26;20006;-73
2024/04/12 04:43:24;;;;;;;26.10;9.30;;;;;;;;;;2187549;27;20002;-72
2024/04/12 04:44:25;;;;;;;13.75;8.45;;;;;;;;;;2187328;26;20006;-72
2024/04/12 04:45:32;;;;;;;16.08;7.65;;;;;;;;;;2189423;27;20047;-72
2024/04/12 04:46:33;;;;;;;10.73;7.18;;;;;;;;;;2186195;27;20001;-72
2024/04/12 04:47:34;;;;;;;;;;;;;;;;;;2184363;26;20006;-72
2024/04/12 04:48:35;;;;;;;11.52;6.75;;;;;;;;;;2184710;27;19927;-73
2024/04/12 04:49:42;;;;;;;11.82;7.30;;;;;;;;;;2188357;27;20014;-72
2024/04/12 04:50:43;;;;;;;12.95;7.00;;;;;;;;;;2185407;26;20505;-73
2024/04/12 04:51:45;;;;;;;;;;;;;;;;;;2187585;27;20449;-73
2024/04/12 04:52:46;;;;;;;13.52;6.88;;;;;;;;;;2186790;27;19927;-73
2024/04/12 04:53:52;;;;;;;11.82;7.57;;;;;;;;;;2188598;26;20383;-73
2024/04/12 04:54:56;;;;;;;11.30;7.32;;;;;;;;;;2186284;27;20037;-72
2024/04/12 04:56:01;;;;;;;14.80;7.47;;;;;;;;;;2184167;27;20025;-72
2024/04/12 04:57:02;;;;;;;12.75;7.18;;;;;;;;;;2188350;27;20007;-73
2024/04/12 04:58:08;;;;;;;13.60;6.97;;;;;;;;;;2186254;26;20010;-73
2024/04/12 04:59:15;;;;;;;15.95;7.35;;;;;;;;;;2184311;26;20034;-72
2024/04/12 05:00:18;;;;;;;15.95;6.95;;;;;;;;;;2187981;27;20006;-72
2024/04/12 05:01:20;;;;;;;13.18;7.45;;;;;;;;;;2184105;26;20010;-72
2024/04/12 05:02:34;;;;;;;13.38;7.00;;;;;;;;;;2184000;26;20006;-72
2024/04/12 05:03:36;;;;;;;15.38;7.40;;;;;;;;;;2182032;26;20007;-72
2024/04/12 05:04:42;;;;;;;13.00;7.72;;;;;;;;;;2187832;27;20049;-71
2024/04/12 05:05:43;;;;;;;10.70;7.22;;;;;;;;;;2198925;26;20036;-72
2024/04/12 05:06:47;;;;;;;12.20;7.75;;;;;;;;;;2200621;26;20002;-72
2024/04/12 05:07:49;;;;;;;17.13;7.88;;;;;;;;;;2199996;26;20041;-72
2024/04/12 05:08:52;;;;;;;10.20;7.32;;;;;;;;;;2190622;26;20012;-72
2024/04/12 05:09:53;;;;;;;10.90;7.43;;;;;;;;;;2185662;27;20050;-72
2024/04/12 05:10:58;;;;;;;;;;;;;;;;;;2186983;27;20002;-73
2024/04/12 05:11:59;;;;;;;11.00;6.82;;;;;;;;;;2188295;27;20000;-71
2024/04/12 05:13:03;;;;;;;;;;;;;;;;;;2184624;27;20010;-72
2024/04/12 05:14:13;;;;;;;13.48;7.95;;;;;;;;;;2185335;26;19941;-71
2024/04/12 05:16:32;;;;;;;20.95;7.47;;;;;;;;;;2185636;27;21178;-72
2024/04/12 05:17:33;;;;;;;17.60;6.95;;;;;;;;;;2184803;26;20018;-73
2024/04/12 05:18:36;;;;;;;;;;;;;;;;;;2188460;26;20010;-72
2024/04/12 05:19:40;;;;;;;10.75;7.68;;;;;;;;;;2185590;27;19933;-72
2024/04/12 05:20:42;;;;;;;13.52;7.68;;;;;;;;;;2184688;27;20010;-73
2024/04/12 05:21:44;;;;;;;12.38;7.43;;;;;;;;;;2182114;26;20006;-75
2024/04/12 05:22:49;;;;;;;11.25;7.72;;;;;;;;;;2187640;27;20021;-72
2024/04/12 05:23:51;;;;;;;17.73;7.38;;;;;;;;;;2184165;27;20010;-73
2024/04/12 05:24:52;;;;;;;10.75;7.30;;;;;;;;;;2185060;26;20176;-73
2024/04/12 05:25:54;;;;;;;;;;;;;;;;;;2185292;26;20003;-73
2024/04/12 05:27:01;;;;;;;10.25;7.03;;;;;;;;;;2186099;27;19990;-72
2024/04/12 05:28:06;;;;;;;16.58;7.75;;;;;;;;;;2184933;27;20002;-73
2024/04/12 05:29:10;;;;;;;10.65;8.23;;;;;;;;;;2183843;26;20723;-73
2024/04/12 05:30:13;;;;;;;15.27;7.43;;;;;;;;;;2184240;27;20002;-72
2024/04/12 05:31:14;;;;;;;13.35;7.35;;;;;;;;;;2187857;27;20013;-73
2024/04/12 05:32:16;;;;;;;;;;;;;;;;;;2180356;27;20681;-73
2024/04/12 05:33:17;;;;;;;17.02;8.25;;;;;;;;;;2184313;27;19934;-73
2024/04/12 05:34:20;;;;;;;;;;;;;;;;;;2184816;27;20006;-72
2024/04/12 05:35:30;;;;;;;12.73;7.32;;;;;;;;;;2193488;26;19953;-73
2024/04/12 05:36:33;;;;;;;12.52;7.90;;;;;;;;;;2199962;26;20009;-74
2024/04/12 05:37:43;;;;;;;11.43;7.53;;;;;;;;;;2202600;26;20009;-72
2024/04/12 05:38:47;;;;;;;12.95;8.30;;;;;;;;;;2202716;26;20571;-72
2024/04/12 05:39:50;;;;;;;12.75;7.90;;;;;;;;;;2202641;26;20005;-72
2024/04/12 05:40:52;;;;;;;20.42;8.48;;;;;;;;;;2199654;26;20004;-72
2024/04/12 05:41:55;;;;;;;15.85;7.78;;;;;;;;;;2183764;27;21227;-72
2024/04/12 05:42:56;;;;;;;15.95;7.97;;;;;;;;;;2185183;27;20021;-72
2024/04/12 05:43:57;;;;;;;13.50;8.27;;;;;;;;;;2182617;26;19997;-73
2024/04/12 05:45:04;;;;;;;;;;;;;;;;;;2186936;27;20024;-73
2024/04/12 05:46:07;;;;;;;15.77;8.82;;;;;;;;;;2186822;27;20000;-72
2024/04/12 05:47:09;;;;;;;16.92;8.18;;;;;;;;;;2186081;26;20010;-72
2024/04/12 05:48:13;;;;;;;15.20;8.02;;;;;;;;;;2187139;26;20420;-72
2024/04/12 05:49:20;;;;;;;18.40;8.75;;;;;;;;;;2186890;27;20016;-74
2024/04/12 05:50:25;;;;;;;12.18;8.18;;;;;;;;;;2186580;27;20013;-73
2024/04/12 05:51:27;;;;;;;18.88;9.40;;;;;;;;;;2186190;27;20025;-72
2024/04/12 05:52:29;;;;;;;19.60;9.45;;;;;;;;;;2184748;27;20003;-73
2024/04/12 05:53:33;;;;;;;18.58;9.50;;;;;;;;;;2184232;27;20013;-72
2024/04/12 05:54:39;;;;;;;17.50;9.68;;;;;;;;;;2183338;26;20466;-73
2024/04/12 05:55:44;;;;;;;18.58;9.48;;;;;;;;;;2185793;27;20052;-73
2024/04/12 05:56:46;;;;;;;14.00;8.95;;;;;;;;;;2184685;27;20026;-72
2024/04/12 05:57:50;;;;;;;15.13;9.52;;;;;;;;;;2183901;26;20022;-72
2024/04/12 05:58:56;;;;;;;16.42;9.70;;;;;;;;;;2183784;27;20013;-72
2024/04/12 05:59:57;;;;;;;17.63;9.45;;;;;;;;;;2184726;27;20011;-72
2024/04/12 06:01:00;;;;;;;15.23;9.73;;;;;;;;;;2186737;26;20010;-72
2024/04/12 06:02:05;;;;;;;14.88;9.25;;;;;;;;;;2182133;26;20002;-72
2024/04/12 06:03:07;;;;;;;12.48;8.52;;;;;;;;;;2183345;26;20011;-71
2024/04/12 06:04:10;;;;;;;14.15;9.30;;;;;;;;;;2185949;27;20054;-71
2024/04/12 06:05:18;;;;;;;16.63;9.40;;;;;;;;;;2185725;27;20021;-72
2024/04/12 06:06:22;;;;;;;15.43;10.15;;;;;;;;;;2187482;26;20010;-72
2024/04/12 06:07:26;;;;;;;15.63;9.60;;;;;;;;;;2183326;26;20026;-72
2024/04/12 06:08:28;;;;;;;17.98;9.98;;;;;;;;;;2186235;26;20010;-72
2024/04/12 06:09:34;;;;;;;16.13;9.15;;;;;;;;;;2188034;27;20474;-73
2024/04/12 06:10:37;;;;;;;15.45;9.88;;;;;;;;;;2185121;27;20013;-73
2024/04/12 06:11:41;;;;;;;16.88;9.45;;;;;;;;;;2185493;27;20482;-72
2024/04/12 06:12:45;;;;;;;16.08;9.25;;;;;;;;;;2181881;27;20159;-74
2024/04/12 06:13:53;;;;;;;14.68;9.27;;;;;;;;;;2184958;27;20002;-72
2024/04/12 06:14:54;;;;;;;20.95;9.93;;;;;;;;;;2187460;27;20010;-73
2024/04/12 06:15:55;;;;;;;;;;;;;;;;;;2185391;26;20006;-72
2024/04/12 06:17:04;;;;;;;16.88;9.77;;;;;;;;;;2183753;27;19927;-74
2024/04/12 06:18:08;;;;;;;15.50;9.52;;;;;;;;;;2185778;26;20022;-74
2024/04/12 06:19:12;;;;;;;15.55;9.48;;;;;;;;;;2197789;26;20385;-74
2024/04/12 06:20:15;;;;;;;13.98;9.18;;;;;;;;;;2200826;26;20013;-75
2024/04/12 06:21:24;;;;;;;18.48;9.43;;;;;;;;;;2202164;26;20344;-73
2024/04/12 06:22:26;;;;;;;12.77;8.85;;;;;;;;;;2200931;26;20009;-74
2024/04/12 06:23:27;;;;;;;14.32;9.07;;;;;;;;;;2201002;26;20024;-72
2024/04/12 06:24:29;;;;;;;18.17;10.23;;;;;;;;;;2194514;26;20021;-73
2024/04/12 06:25:38;;;;;;;16.75;9.18;;;;;;;;;;2186182;27;20010;-72